sensor_id;sensor_type;location;lat;lon;timestamp;P1;durP1;ratioP1;P2;durP2;ratioP2
31126;SDS011;17775;57.948;12.514;2023-07-20T00:00:45;12.82;;;3.10;;
31126;SDS011;17775;57.948;12.514;2023-07-20T00:03:13;14.35;;;3.17;;
31126;SDS011;17775;57.948;12.514;2023-07-20T00:05:46;14.65;;;3.28;;
31126;SDS011;17775;57.948;12.514;2023-07-20T00:08:13;8.27;;;2.92;;
31126;SDS011;17775;57.948;12.514;2023-07-20T00:10:40;10.35;;;3.13;;
31126;SDS011;17775;57.948;12.514;2023-07-20T00:13:06;14.13;;;3.13;;
31126;SDS011;17775;57.948;12.514;2023-07-20T00:15:33;13.52;;;4.07;;
31126;SDS011;17775;57.948;12.514;2023-07-20T00:17:59;9.88;;;3.00;;
31126;SDS011;17775;57.948;12.514;2023-07-20T00:20:26;13.25;;;2.40;;
31126;SDS011;17775;57.948;12.514;2023-07-20T00:22:52;15.30;;;2.88;;
31126;SDS011;17775;57.948;12.514;2023-07-20T00:25:23;22.38;;;5.35;;
31126;SDS011;17775;57.948;12.514;2023-07-20T00:27:50;13.40;;;3.20;;
31126;SDS011;17775;57.948;12.514;2023-07-20T00:30:17;15.25;;;2.58;;
31126;SDS011;17775;57.948;12.514;2023-07-20T00:32:44;10.57;;;2.78;;
31126;SDS011;17775;57.948;12.514;2023-07-20T00:35:11;10.27;;;2.25;;
31126;SDS011;17775;57.948;12.514;2023-07-20T00:37:38;11.07;;;3.00;;
31126;SDS011;17775;57.948;12.514;2023-07-20T00:40:05;12.13;;;2.95;;
31126;SDS011;17775;57.948;12.514;2023-07-20T00:42:35;15.98;;;2.40;;
31126;SDS011;17775;57.948;12.514;2023-07-20T00:45:02;14.93;;;2.95;;
31126;SDS011;17775;57.948;12.514;2023-07-20T00:47:29;11.30;;;2.60;;
31126;SDS011;17775;57.948;12.514;2023-07-20T00:49:55;13.68;;;3.60;;
31126;SDS011;17775;57.948;12.514;2023-07-20T00:52:22;11.07;;;2.22;;
31126;SDS011;17775;57.948;12.514;2023-07-20T00:54:49;13.55;;;2.92;;
31126;SDS011;17775;57.948;12.514;2023-07-20T00:57:16;14.35;;;2.60;;
31126;SDS011;17775;57.948;12.514;2023-07-20T00:59:43;18.30;;;2.92;;
31126;SDS011;17775;57.948;12.514;2023-07-20T01:02:10;10.10;;;2.80;;
31126;SDS011;17775;57.948;12.514;2023-07-20T01:04:37;10.75;;;2.47;;
31126;SDS011;17775;57.948;12.514;2023-07-20T01:09:44;15.80;;;2.47;;
31126;SDS011;17775;57.948;12.514;2023-07-20T01:12:14;14.77;;;2.50;;
31126;SDS011;17775;57.948;12.514;2023-07-20T01:14:45;11.88;;;2.42;;
31126;SDS011;17775;57.948;12.514;2023-07-20T01:17:11;9.88;;;2.88;;
31126;SDS011;17775;57.948;12.514;2023-07-20T01:19:38;13.18;;;2.70;;
31126;SDS011;17775;57.948;12.514;2023-07-20T01:32:32;6.88;;;2.15;;
31126;SDS011;17775;57.948;12.514;2023-07-20T01:34:59;13.65;;;2.60;;
31126;SDS011;17775;57.948;12.514;2023-07-20T01:37:26;15.10;;;3.17;;
31126;SDS011;17775;57.948;12.514;2023-07-20T01:39:56;10.43;;;3.35;;
31126;SDS011;17775;57.948;12.514;2023-07-20T01:42:23;13.93;;;2.40;;
31126;SDS011;17775;57.948;12.514;2023-07-20T01:44:50;15.52;;;2.78;;
31126;SDS011;17775;57.948;12.514;2023-07-20T01:47:17;10.88;;;1.95;;
31126;SDS011;17775;57.948;12.514;2023-07-20T01:49:44;11.35;;;2.55;;
31126;SDS011;17775;57.948;12.514;2023-07-20T01:52:11;11.02;;;2.83;;
31126;SDS011;17775;57.948;12.514;2023-07-20T01:54:37;9.88;;;2.10;;
31126;SDS011;17775;57.948;12.514;2023-07-20T01:57:04;10.05;;;2.05;;
31126;SDS011;17775;57.948;12.514;2023-07-20T01:59:30;9.05;;;2.17;;
31126;SDS011;17775;57.948;12.514;2023-07-20T02:01:57;7.80;;;2.10;;
31126;SDS011;17775;57.948;12.514;2023-07-20T02:04:23;13.95;;;2.22;;
31126;SDS011;17775;57.948;12.514;2023-07-20T02:06:50;12.38;;;2.38;;
31126;SDS011;17775;57.948;12.514;2023-07-20T02:09:16;13.77;;;2.58;;
31126;SDS011;17775;57.948;12.514;2023-07-20T02:11:43;10.95;;;2.38;;
31126;SDS011;17775;57.948;12.514;2023-07-20T02:14:09;11.10;;;2.40;;
31126;SDS011;17775;57.948;12.514;2023-07-20T02:16:36;13.15;;;3.03;;
31126;SDS011;17775;57.948;12.514;2023-07-20T02:19:05;11.57;;;2.20;;
31126;SDS011;17775;57.948;12.514;2023-07-20T02:21:33;11.40;;;2.75;;
31126;SDS011;17775;57.948;12.514;2023-07-20T02:24:00;10.23;;;2.05;;
31126;SDS011;17775;57.948;12.514;2023-07-20T02:26:26;11.25;;;2.92;;
31126;SDS011;17775;57.948;12.514;2023-07-20T02:28:53;21.15;;;3.72;;
31126;SDS011;17775;57.948;12.514;2023-07-20T02:31:19;14.70;;;2.25;;
31126;SDS011;17775;57.948;12.514;2023-07-20T02:33:46;15.40;;;2.35;;
31126;SDS011;17775;57.948;12.514;2023-07-20T02:36:12;9.73;;;2.08;;
31126;SDS011;17775;57.948;12.514;2023-07-20T02:38:43;12.88;;;2.80;;
31126;SDS011;17775;57.948;12.514;2023-07-20T02:41:09;11.48;;;2.83;;
31126;SDS011;17775;57.948;12.514;2023-07-20T02:43:36;9.75;;;2.17;;
31126;SDS011;17775;57.948;12.514;2023-07-20T02:46:02;14.18;;;2.75;;
31126;SDS011;17775;57.948;12.514;2023-07-20T02:48:29;26.50;;;3.83;;
31126;SDS011;17775;57.948;12.514;2023-07-20T02:50:56;12.80;;;2.13;;
31126;SDS011;17775;57.948;12.514;2023-07-20T02:53:22;10.82;;;2.03;;
31126;SDS011;17775;57.948;12.514;2023-07-20T02:55:48;12.40;;;2.40;;
31126;SDS011;17775;57.948;12.514;2023-07-20T02:58:15;12.43;;;2.17;;
31126;SDS011;17775;57.948;12.514;2023-07-20T03:00:42;11.02;;;2.13;;
31126;SDS011;17775;57.948;12.514;2023-07-20T03:03:09;9.20;;;2.53;;
31126;SDS011;17775;57.948;12.514;2023-07-20T03:05:36;11.18;;;2.30;;
31126;SDS011;17775;57.948;12.514;2023-07-20T03:08:05;18.75;;;3.17;;
31126;SDS011;17775;57.948;12.514;2023-07-20T03:10:32;12.43;;;2.75;;
31126;SDS011;17775;57.948;12.514;2023-07-20T03:12:59;9.68;;;2.08;;
31126;SDS011;17775;57.948;12.514;2023-07-20T03:15:25;18.15;;;2.20;;
31126;SDS011;17775;57.948;12.514;2023-07-20T03:17:52;13.18;;;2.22;;
31126;SDS011;17775;57.948;12.514;2023-07-20T03:20:18;15.85;;;3.38;;
31126;SDS011;17775;57.948;12.514;2023-07-20T03:22:45;9.43;;;1.85;;
31126;SDS011;17775;57.948;12.514;2023-07-20T03:25:11;15.75;;;2.97;;
31126;SDS011;17775;57.948;12.514;2023-07-20T03:27:38;13.07;;;2.95;;
31126;SDS011;17775;57.948;12.514;2023-07-20T03:30:05;11.38;;;2.17;;
31126;SDS011;17775;57.948;12.514;2023-07-20T03:32:33;14.27;;;2.58;;
31126;SDS011;17775;57.948;12.514;2023-07-20T03:35:00;12.48;;;2.53;;
31126;SDS011;17775;57.948;12.514;2023-07-20T03:37:26;11.80;;;2.17;;
31126;SDS011;17775;57.948;12.514;2023-07-20T03:39:53;15.27;;;2.63;;
31126;SDS011;17775;57.948;12.514;2023-07-20T03:42:20;10.73;;;2.45;;
31126;SDS011;17775;57.948;12.514;2023-07-20T03:44:46;13.13;;;2.63;;
31126;SDS011;17775;57.948;12.514;2023-07-20T03:47:12;10.32;;;1.90;;
31126;SDS011;17775;57.948;12.514;2023-07-20T03:49:39;7.63;;;1.90;;
31126;SDS011;17775;57.948;12.514;2023-07-20T03:52:06;24.33;;;2.75;;
31126;SDS011;17775;57.948;12.514;2023-07-20T03:54:32;14.90;;;2.40;;
31126;SDS011;17775;57.948;12.514;2023-07-20T03:56:59;10.68;;;1.83;;
31126;SDS011;17775;57.948;12.514;2023-07-20T03:59:26;8.52;;;2.25;;
31126;SDS011;17775;57.948;12.514;2023-07-20T04:01:53;12.15;;;2.10;;
31126;SDS011;17775;57.948;12.514;2023-07-20T04:04:20;15.15;;;2.72;;
31126;SDS011;17775;57.948;12.514;2023-07-20T04:06:46;11.02;;;1.92;;
31126;SDS011;17775;57.948;12.514;2023-07-20T04:09:13;11.18;;;2.00;;
31126;SDS011;17775;57.948;12.514;2023-07-20T04:11:40;13.10;;;2.83;;
31126;SDS011;17775;57.948;12.514;2023-07-20T04:14:07;11.57;;;2.00;;
31126;SDS011;17775;57.948;12.514;2023-07-20T04:16:33;9.48;;;1.85;;
31126;SDS011;17775;57.948;12.514;2023-07-20T04:19:00;6.75;;;2.00;;
31126;SDS011;17775;57.948;12.514;2023-07-20T04:21:27;9.15;;;2.00;;
31126;SDS011;17775;57.948;12.514;2023-07-20T04:23:53;8.02;;;1.75;;
31126;SDS011;17775;57.948;12.514;2023-07-20T04:26:20;11.10;;;1.77;;
31126;SDS011;17775;57.948;12.514;2023-07-20T04:28:47;9.60;;;2.50;;
31126;SDS011;17775;57.948;12.514;2023-07-20T04:31:15;11.25;;;1.90;;
31126;SDS011;17775;57.948;12.514;2023-07-20T04:33:42;10.38;;;1.85;;
31126;SDS011;17775;57.948;12.514;2023-07-20T04:36:11;14.02;;;2.20;;
31126;SDS011;17775;57.948;12.514;2023-07-20T04:38:37;9.05;;;1.52;;
31126;SDS011;17775;57.948;12.514;2023-07-20T04:41:04;8.57;;;1.50;;
31126;SDS011;17775;57.948;12.514;2023-07-20T04:43:30;10.82;;;2.15;;
31126;SDS011;17775;57.948;12.514;2023-07-20T04:45:57;7.32;;;1.40;;
31126;SDS011;17775;57.948;12.514;2023-07-20T04:48:24;7.15;;;1.38;;
31126;SDS011;17775;57.948;12.514;2023-07-20T04:50:51;10.63;;;1.73;;
31126;SDS011;17775;57.948;12.514;2023-07-20T04:53:18;6.20;;;1.42;;
31126;SDS011;17775;57.948;12.514;2023-07-20T04:55:48;8.23;;;1.30;;
31126;SDS011;17775;57.948;12.514;2023-07-20T04:58:18;4.97;;;1.30;;
31126;SDS011;17775;57.948;12.514;2023-07-20T05:00:44;6.75;;;1.85;;
31126;SDS011;17775;57.948;12.514;2023-07-20T05:03:11;7.80;;;1.60;;
31126;SDS011;17775;57.948;12.514;2023-07-20T05:05:38;6.38;;;1.30;;
31126;SDS011;17775;57.948;12.514;2023-07-20T05:08:04;8.32;;;1.25;;
31126;SDS011;17775;57.948;12.514;2023-07-20T05:10:31;3.97;;;1.10;;
31126;SDS011;17775;57.948;12.514;2023-07-20T05:12:59;6.95;;;1.40;;
31126;SDS011;17775;57.948;12.514;2023-07-20T05:15:25;9.35;;;1.25;;
31126;SDS011;17775;57.948;12.514;2023-07-20T05:17:52;8.57;;;1.75;;
31126;SDS011;17775;57.948;12.514;2023-07-20T05:20:19;5.35;;;1.27;;
31126;SDS011;17775;57.948;12.514;2023-07-20T05:22:46;6.13;;;1.40;;
31126;SDS011;17775;57.948;12.514;2023-07-20T05:25:13;5.40;;;1.30;;
31126;SDS011;17775;57.948;12.514;2023-07-20T05:27:40;4.88;;;1.42;;
31126;SDS011;17775;57.948;12.514;2023-07-20T05:30:07;6.72;;;1.40;;
31126;SDS011;17775;57.948;12.514;2023-07-20T05:32:33;7.10;;;1.10;;
31126;SDS011;17775;57.948;12.514;2023-07-20T05:35:00;4.10;;;0.85;;
31126;SDS011;17775;57.948;12.514;2023-07-20T05:37:26;3.90;;;1.63;;
31126;SDS011;17775;57.948;12.514;2023-07-20T05:39:53;4.00;;;1.15;;
31126;SDS011;17775;57.948;12.514;2023-07-20T05:42:20;5.38;;;1.40;;
31126;SDS011;17775;57.948;12.514;2023-07-20T05:44:46;6.15;;;1.30;;
31126;SDS011;17775;57.948;12.514;2023-07-20T05:47:14;3.97;;;1.38;;
31126;SDS011;17775;57.948;12.514;2023-07-20T05:49:43;7.40;;;2.10;;
31126;SDS011;17775;57.948;12.514;2023-07-20T05:52:10;9.38;;;1.50;;
31126;SDS011;17775;57.948;12.514;2023-07-20T05:54:36;5.60;;;1.25;;
31126;SDS011;17775;57.948;12.514;2023-07-20T05:57:03;2.30;;;1.08;;
31126;SDS011;17775;57.948;12.514;2023-07-20T05:59:29;5.03;;;1.25;;
31126;SDS011;17775;57.948;12.514;2023-07-20T06:01:56;4.82;;;1.33;;
31126;SDS011;17775;57.948;12.514;2023-07-20T06:04:22;2.75;;;0.90;;
31126;SDS011;17775;57.948;12.514;2023-07-20T06:06:49;6.00;;;1.05;;
31126;SDS011;17775;57.948;12.514;2023-07-20T06:09:15;3.08;;;0.98;;
31126;SDS011;17775;57.948;12.514;2023-07-20T06:11:42;6.00;;;0.95;;
31126;SDS011;17775;57.948;12.514;2023-07-20T06:14:09;3.53;;;1.00;;
31126;SDS011;17775;57.948;12.514;2023-07-20T06:16:36;6.10;;;0.95;;
31126;SDS011;17775;57.948;12.514;2023-07-20T06:19:02;6.18;;;0.80;;
31126;SDS011;17775;57.948;12.514;2023-07-20T06:21:29;2.40;;;0.73;;
31126;SDS011;17775;57.948;12.514;2023-07-20T06:23:55;3.92;;;0.68;;
31126;SDS011;17775;57.948;12.514;2023-07-20T06:26:22;5.18;;;0.80;;
31126;SDS011;17775;57.948;12.514;2023-07-20T06:28:49;4.70;;;0.82;;
31126;SDS011;17775;57.948;12.514;2023-07-20T06:31:16;3.83;;;0.70;;
31126;SDS011;17775;57.948;12.514;2023-07-20T06:33:43;3.10;;;0.80;;
31126;SDS011;17775;57.948;12.514;2023-07-20T06:36:10;4.93;;;0.88;;
31126;SDS011;17775;57.948;12.514;2023-07-20T06:38:37;2.67;;;0.80;;
31126;SDS011;17775;57.948;12.514;2023-07-20T06:41:03;5.93;;;0.88;;
31126;SDS011;17775;57.948;12.514;2023-07-20T06:43:33;1.92;;;0.80;;
31126;SDS011;17775;57.948;12.514;2023-07-20T06:46:02;5.75;;;0.70;;
31126;SDS011;17775;57.948;12.514;2023-07-20T06:48:29;4.07;;;0.88;;
31126;SDS011;17775;57.948;12.514;2023-07-20T06:50:56;5.25;;;1.08;;
31126;SDS011;17775;57.948;12.514;2023-07-20T06:53:22;7.10;;;0.90;;
31126;SDS011;17775;57.948;12.514;2023-07-20T06:55:49;5.47;;;0.80;;
31126;SDS011;17775;57.948;12.514;2023-07-20T06:58:16;4.00;;;0.77;;
31126;SDS011;17775;57.948;12.514;2023-07-20T07:00:44;7.72;;;0.95;;
31126;SDS011;17775;57.948;12.514;2023-07-20T07:03:11;2.83;;;0.70;;
31126;SDS011;17775;57.948;12.514;2023-07-20T07:05:40;5.93;;;1.00;;
31126;SDS011;17775;57.948;12.514;2023-07-20T07:08:07;6.13;;;0.88;;
31126;SDS011;17775;57.948;12.514;2023-07-20T07:10:37;2.85;;;0.82;;
31126;SDS011;17775;57.948;12.514;2023-07-20T07:13:04;3.78;;;0.80;;
31126;SDS011;17775;57.948;12.514;2023-07-20T07:15:31;5.05;;;0.85;;
31126;SDS011;17775;57.948;12.514;2023-07-20T07:17:58;2.95;;;0.90;;
31126;SDS011;17775;57.948;12.514;2023-07-20T07:20:26;3.63;;;1.10;;
31126;SDS011;17775;57.948;12.514;2023-07-20T07:22:55;5.70;;;1.52;;
31126;SDS011;17775;57.948;12.514;2023-07-20T07:25:22;3.63;;;0.90;;
31126;SDS011;17775;57.948;12.514;2023-07-20T07:27:49;3.20;;;0.70;;
31126;SDS011;17775;57.948;12.514;2023-07-20T07:30:16;4.50;;;0.93;;
31126;SDS011;17775;57.948;12.514;2023-07-20T07:32:43;4.88;;;0.90;;
31126;SDS011;17775;57.948;12.514;2023-07-20T07:35:10;3.63;;;0.70;;
31126;SDS011;17775;57.948;12.514;2023-07-20T07:37:38;3.22;;;0.80;;
31126;SDS011;17775;57.948;12.514;2023-07-20T07:40:22;2.88;;;0.50;;
31126;SDS011;17775;57.948;12.514;2023-07-20T07:42:49;4.05;;;0.73;;
31126;SDS011;17775;57.948;12.514;2023-07-20T07:45:16;4.47;;;0.80;;
31126;SDS011;17775;57.948;12.514;2023-07-20T07:47:43;7.15;;;0.90;;
31126;SDS011;17775;57.948;12.514;2023-07-20T07:50:09;2.78;;;0.80;;
31126;SDS011;17775;57.948;12.514;2023-07-20T07:52:36;2.05;;;0.70;;
31126;SDS011;17775;57.948;12.514;2023-07-20T07:55:03;4.40;;;0.63;;
31126;SDS011;17775;57.948;12.514;2023-07-20T07:57:30;4.60;;;1.02;;
31126;SDS011;17775;57.948;12.514;2023-07-20T07:59:57;2.47;;;0.95;;
31126;SDS011;17775;57.948;12.514;2023-07-20T08:02:23;3.72;;;0.63;;
31126;SDS011;17775;57.948;12.514;2023-07-20T08:04:50;4.38;;;0.63;;
31126;SDS011;17775;57.948;12.514;2023-07-20T08:07:18;3.33;;;0.60;;
31126;SDS011;17775;57.948;12.514;2023-07-20T08:09:45;5.35;;;0.68;;
31126;SDS011;17775;57.948;12.514;2023-07-20T08:12:11;2.00;;;0.90;;
31126;SDS011;17775;57.948;12.514;2023-07-20T08:14:39;12.98;;;1.88;;
31126;SDS011;17775;57.948;12.514;2023-07-20T08:17:06;10.43;;;1.67;;
31126;SDS011;17775;57.948;12.514;2023-07-20T08:19:33;4.72;;;0.82;;
31126;SDS011;17775;57.948;12.514;2023-07-20T08:22:01;4.88;;;1.00;;
31126;SDS011;17775;57.948;12.514;2023-07-20T08:24:28;1.23;;;0.57;;
31126;SDS011;17775;57.948;12.514;2023-07-20T08:26:54;2.17;;;0.70;;
31126;SDS011;17775;57.948;12.514;2023-07-20T08:29:21;4.75;;;0.90;;
31126;SDS011;17775;57.948;12.514;2023-07-20T08:31:47;2.53;;;0.50;;
31126;SDS011;17775;57.948;12.514;2023-07-20T08:34:14;1.80;;;0.80;;
31126;SDS011;17775;57.948;12.514;2023-07-20T08:36:57;2.47;;;0.60;;
31126;SDS011;17775;57.948;12.514;2023-07-20T08:39:23;5.57;;;0.88;;
31126;SDS011;17775;57.948;12.514;2023-07-20T08:41:51;3.00;;;0.60;;
31126;SDS011;17775;57.948;12.514;2023-07-20T08:44:18;2.95;;;0.50;;
31126;SDS011;17775;57.948;12.514;2023-07-20T08:46:45;2.60;;;0.52;;
31126;SDS011;17775;57.948;12.514;2023-07-20T08:49:12;4.20;;;0.55;;
31126;SDS011;17775;57.948;12.514;2023-07-20T08:51:39;3.83;;;0.77;;
31126;SDS011;17775;57.948;12.514;2023-07-20T08:54:08;3.63;;;0.60;;
31126;SDS011;17775;57.948;12.514;2023-07-20T08:56:36;4.47;;;0.82;;
31126;SDS011;17775;57.948;12.514;2023-07-20T08:59:03;2.38;;;0.60;;
31126;SDS011;17775;57.948;12.514;2023-07-20T09:01:31;3.50;;;0.63;;
31126;SDS011;17775;57.948;12.514;2023-07-20T09:03:58;1.55;;;0.55;;
31126;SDS011;17775;57.948;12.514;2023-07-20T09:06:25;1.38;;;0.40;;
31126;SDS011;17775;57.948;12.514;2023-07-20T09:08:53;1.38;;;0.52;;
31126;SDS011;17775;57.948;12.514;2023-07-20T09:11:19;2.65;;;0.60;;
31126;SDS011;17775;57.948;12.514;2023-07-20T09:13:46;3.50;;;0.63;;
31126;SDS011;17775;57.948;12.514;2023-07-20T09:16:16;2.33;;;0.50;;
31126;SDS011;17775;57.948;12.514;2023-07-20T09:18:42;2.17;;;0.60;;
31126;SDS011;17775;57.948;12.514;2023-07-20T09:21:09;2.78;;;0.77;;
31126;SDS011;17775;57.948;12.514;2023-07-20T09:23:37;1.55;;;0.40;;
31126;SDS011;17775;57.948;12.514;2023-07-20T09:26:11;2.42;;;0.40;;
31126;SDS011;17775;57.948;12.514;2023-07-20T09:28:56;2.42;;;0.57;;
31126;SDS011;17775;57.948;12.514;2023-07-20T09:31:23;0.75;;;0.30;;
31126;SDS011;17775;57.948;12.514;2023-07-20T09:33:51;2.95;;;0.50;;
31126;SDS011;17775;57.948;12.514;2023-07-20T09:36:21;4.43;;;0.93;;
31126;SDS011;17775;57.948;12.514;2023-07-20T09:39:08;3.20;;;0.47;;
31126;SDS011;17775;57.948;12.514;2023-07-20T09:41:41;1.05;;;0.50;;
31126;SDS011;17775;57.948;12.514;2023-07-20T09:44:11;2.72;;;1.05;;
31126;SDS011;17775;57.948;12.514;2023-07-20T09:46:41;3.28;;;0.60;;
31126;SDS011;17775;57.948;12.514;2023-07-20T09:49:10;4.88;;;0.70;;
31126;SDS011;17775;57.948;12.514;2023-07-20T09:51:40;2.35;;;0.50;;
31126;SDS011;17775;57.948;12.514;2023-07-20T09:54:08;3.50;;;0.80;;
31126;SDS011;17775;57.948;12.514;2023-07-20T09:56:35;2.50;;;0.50;;
31126;SDS011;17775;57.948;12.514;2023-07-20T09:59:02;2.60;;;0.55;;
31126;SDS011;17775;57.948;12.514;2023-07-20T10:01:29;2.55;;;0.50;;
31126;SDS011;17775;57.948;12.514;2023-07-20T10:03:58;1.00;;;0.40;;
31126;SDS011;17775;57.948;12.514;2023-07-20T10:06:24;3.30;;;0.60;;
31126;SDS011;17775;57.948;12.514;2023-07-20T10:08:53;1.50;;;0.60;;
31126;SDS011;17775;57.948;12.514;2023-07-20T10:11:20;2.03;;;0.75;;
31126;SDS011;17775;57.948;12.514;2023-07-20T10:13:48;4.53;;;0.70;;
31126;SDS011;17775;57.948;12.514;2023-07-20T10:16:28;0.57;;;0.40;;
31126;SDS011;17775;57.948;12.514;2023-07-20T10:19:11;2.25;;;0.50;;
31126;SDS011;17775;57.948;12.514;2023-07-20T10:21:46;2.75;;;0.40;;
31126;SDS011;17775;57.948;12.514;2023-07-20T10:24:21;2.92;;;0.50;;
31126;SDS011;17775;57.948;12.514;2023-07-20T10:26:48;1.85;;;0.40;;
31126;SDS011;17775;57.948;12.514;2023-07-20T10:29:15;1.50;;;0.40;;
31126;SDS011;17775;57.948;12.514;2023-07-20T10:31:41;2.50;;;0.47;;
31126;SDS011;17775;57.948;12.514;2023-07-20T10:34:08;2.67;;;0.40;;
31126;SDS011;17775;57.948;12.514;2023-07-20T10:36:43;2.05;;;0.40;;
31126;SDS011;17775;57.948;12.514;2023-07-20T10:39:21;0.75;;;0.35;;
31126;SDS011;17775;57.948;12.514;2023-07-20T10:41:49;2.65;;;0.50;;
31126;SDS011;17775;57.948;12.514;2023-07-20T10:44:19;1.77;;;0.32;;
31126;SDS011;17775;57.948;12.514;2023-07-20T10:46:46;1.40;;;0.50;;
31126;SDS011;17775;57.948;12.514;2023-07-20T10:49:13;1.15;;;0.40;;
31126;SDS011;17775;57.948;12.514;2023-07-20T10:51:48;3.72;;;0.50;;
31126;SDS011;17775;57.948;12.514;2023-07-20T10:56:42;2.85;;;0.80;;
31126;SDS011;17775;57.948;12.514;2023-07-20T11:01:46;1.90;;;0.30;;
31126;SDS011;17775;57.948;12.514;2023-07-20T11:04:14;2.05;;;0.40;;
31126;SDS011;17775;57.948;12.514;2023-07-20T11:06:43;3.78;;;0.40;;
31126;SDS011;17775;57.948;12.514;2023-07-20T11:09:10;1.90;;;0.40;;
31126;SDS011;17775;57.948;12.514;2023-07-20T11:11:38;2.47;;;0.60;;
31126;SDS011;17775;57.948;12.514;2023-07-20T11:14:06;2.17;;;0.43;;
31126;SDS011;17775;57.948;12.514;2023-07-20T11:16:34;1.05;;;0.47;;
31126;SDS011;17775;57.948;12.514;2023-07-20T11:19:01;1.85;;;0.30;;
31126;SDS011;17775;57.948;12.514;2023-07-20T11:21:29;3.05;;;0.40;;
31126;SDS011;17775;57.948;12.514;2023-07-20T11:23:55;0.47;;;0.30;;
31126;SDS011;17775;57.948;12.514;2023-07-20T11:26:22;2.35;;;1.13;;
31126;SDS011;17775;57.948;12.514;2023-07-20T11:28:49;1.45;;;0.40;;
31126;SDS011;17775;57.948;12.514;2023-07-20T11:31:16;2.08;;;0.40;;
31126;SDS011;17775;57.948;12.514;2023-07-20T11:33:42;3.25;;;0.40;;
31126;SDS011;17775;57.948;12.514;2023-07-20T11:36:09;3.75;;;0.50;;
31126;SDS011;17775;57.948;12.514;2023-07-20T11:38:41;2.38;;;0.30;;
31126;SDS011;17775;57.948;12.514;2023-07-20T11:41:10;1.95;;;0.60;;
31126;SDS011;17775;57.948;12.514;2023-07-20T11:43:37;0.60;;;0.40;;
31126;SDS011;17775;57.948;12.514;2023-07-20T11:46:04;1.77;;;0.40;;
31126;SDS011;17775;57.948;12.514;2023-07-20T11:48:31;2.13;;;0.40;;
31126;SDS011;17775;57.948;12.514;2023-07-20T11:50:58;1.98;;;0.30;;
31126;SDS011;17775;57.948;12.514;2023-07-20T11:53:24;2.33;;;0.40;;
31126;SDS011;17775;57.948;12.514;2023-07-20T11:55:51;1.08;;;0.30;;
31126;SDS011;17775;57.948;12.514;2023-07-20T11:58:18;0.30;;;0.25;;
31126;SDS011;17775;57.948;12.514;2023-07-20T12:00:45;2.45;;;0.60;;
31126;SDS011;17775;57.948;12.514;2023-07-20T12:03:12;1.63;;;0.50;;
31126;SDS011;17775;57.948;12.514;2023-07-20T12:05:39;4.15;;;0.55;;
31126;SDS011;17775;57.948;12.514;2023-07-20T12:08:25;1.17;;;0.35;;
31126;SDS011;17775;57.948;12.514;2023-07-20T12:10:52;2.45;;;0.38;;
31126;SDS011;17775;57.948;12.514;2023-07-20T12:13:20;2.00;;;0.50;;
31126;SDS011;17775;57.948;12.514;2023-07-20T12:15:47;1.38;;;0.60;;
31126;SDS011;17775;57.948;12.514;2023-07-20T12:18:14;3.70;;;0.60;;
31126;SDS011;17775;57.948;12.514;2023-07-20T12:20:40;2.42;;;0.73;;
31126;SDS011;17775;57.948;12.514;2023-07-20T12:23:11;2.40;;;0.93;;
31126;SDS011;17775;57.948;12.514;2023-07-20T12:25:39;1.45;;;0.65;;
31126;SDS011;17775;57.948;12.514;2023-07-20T12:28:12;2.28;;;0.63;;
31126;SDS011;17775;57.948;12.514;2023-07-20T12:30:41;1.27;;;0.50;;
31126;SDS011;17775;57.948;12.514;2023-07-20T12:33:07;1.55;;;0.43;;
31126;SDS011;17775;57.948;12.514;2023-07-20T12:35:34;1.40;;;0.52;;
31126;SDS011;17775;57.948;12.514;2023-07-20T12:38:01;1.60;;;0.77;;
31126;SDS011;17775;57.948;12.514;2023-07-20T12:40:27;1.88;;;0.70;;
31126;SDS011;17775;57.948;12.514;2023-07-20T12:42:54;1.88;;;0.70;;
31126;SDS011;17775;57.948;12.514;2023-07-20T12:45:20;0.70;;;0.55;;
31126;SDS011;17775;57.948;12.514;2023-07-20T12:47:48;1.80;;;0.60;;
31126;SDS011;17775;57.948;12.514;2023-07-20T12:50:15;1.42;;;0.60;;
31126;SDS011;17775;57.948;12.514;2023-07-20T12:52:41;1.98;;;0.75;;
31126;SDS011;17775;57.948;12.514;2023-07-20T12:55:08;1.48;;;0.77;;
31126;SDS011;17775;57.948;12.514;2023-07-20T12:57:35;1.17;;;0.70;;
31126;SDS011;17775;57.948;12.514;2023-07-20T13:00:03;1.83;;;0.77;;
31126;SDS011;17775;57.948;12.514;2023-07-20T13:02:32;0.95;;;0.80;;
31126;SDS011;17775;57.948;12.514;2023-07-20T13:04:59;1.70;;;0.70;;
31126;SDS011;17775;57.948;12.514;2023-07-20T13:07:32;2.17;;;0.70;;
31126;SDS011;17775;57.948;12.514;2023-07-20T13:10:02;1.17;;;0.60;;
31126;SDS011;17775;57.948;12.514;2023-07-20T13:12:30;2.13;;;0.70;;
31126;SDS011;17775;57.948;12.514;2023-07-20T13:15:00;2.17;;;0.80;;
31126;SDS011;17775;57.948;12.514;2023-07-20T13:17:27;1.33;;;0.45;;
31126;SDS011;17775;57.948;12.514;2023-07-20T13:19:54;0.63;;;0.32;;
31126;SDS011;17775;57.948;12.514;2023-07-20T13:22:21;4.60;;;0.70;;
31126;SDS011;17775;57.948;12.514;2023-07-20T13:24:47;2.60;;;0.68;;
31126;SDS011;17775;57.948;12.514;2023-07-20T13:27:15;1.92;;;0.60;;
31126;SDS011;17775;57.948;12.514;2023-07-20T13:29:42;2.75;;;0.85;;
31126;SDS011;17775;57.948;12.514;2023-07-20T13:32:15;4.18;;;0.60;;
31126;SDS011;17775;57.948;12.514;2023-07-20T13:34:41;3.47;;;0.80;;
31126;SDS011;17775;57.948;12.514;2023-07-20T13:37:08;4.85;;;1.25;;
31126;SDS011;17775;57.948;12.514;2023-07-20T13:42:05;3.55;;;0.93;;
31126;SDS011;17775;57.948;12.514;2023-07-20T13:44:32;2.10;;;0.85;;
31126;SDS011;17775;57.948;12.514;2023-07-20T13:46:59;3.30;;;0.98;;
31126;SDS011;17775;57.948;12.514;2023-07-20T13:49:45;2.22;;;0.73;;
31126;SDS011;17775;57.948;12.514;2023-07-20T13:52:28;2.30;;;0.90;;
31126;SDS011;17775;57.948;12.514;2023-07-20T13:54:58;3.38;;;1.00;;
31126;SDS011;17775;57.948;12.514;2023-07-20T13:57:24;1.98;;;0.90;;
31126;SDS011;17775;57.948;12.514;2023-07-20T13:59:53;2.75;;;0.90;;
31126;SDS011;17775;57.948;12.514;2023-07-20T14:02:19;3.53;;;0.82;;
31126;SDS011;17775;57.948;12.514;2023-07-20T14:04:49;1.35;;;0.60;;
31126;SDS011;17775;57.948;12.514;2023-07-20T14:07:36;2.85;;;0.70;;
31126;SDS011;17775;57.948;12.514;2023-07-20T14:10:04;4.32;;;0.70;;
31126;SDS011;17775;57.948;12.514;2023-07-20T14:12:33;2.60;;;0.80;;
31126;SDS011;17775;57.948;12.514;2023-07-20T14:14:59;3.78;;;1.10;;
31126;SDS011;17775;57.948;12.514;2023-07-20T14:17:26;3.50;;;0.80;;
31126;SDS011;17775;57.948;12.514;2023-07-20T14:19:56;2.38;;;0.73;;
31126;SDS011;17775;57.948;12.514;2023-07-20T14:22:22;2.40;;;0.60;;
31126;SDS011;17775;57.948;12.514;2023-07-20T14:24:49;3.10;;;0.73;;
31126;SDS011;17775;57.948;12.514;2023-07-20T14:27:15;5.63;;;0.70;;
31126;SDS011;17775;57.948;12.514;2023-07-20T14:29:42;5.90;;;1.00;;
31126;SDS011;17775;57.948;12.514;2023-07-20T14:32:09;6.78;;;1.42;;
31126;SDS011;17775;57.948;12.514;2023-07-20T14:34:36;3.22;;;0.90;;
31126;SDS011;17775;57.948;12.514;2023-07-20T14:37:08;2.78;;;0.75;;
31126;SDS011;17775;57.948;12.514;2023-07-20T14:39:34;3.22;;;0.65;;
31126;SDS011;17775;57.948;12.514;2023-07-20T14:42:01;2.17;;;0.80;;
31126;SDS011;17775;57.948;12.514;2023-07-20T14:44:30;2.60;;;0.85;;
31126;SDS011;17775;57.948;12.514;2023-07-20T14:46:57;3.55;;;0.70;;
31126;SDS011;17775;57.948;12.514;2023-07-20T14:49:39;2.78;;;0.80;;
31126;SDS011;17775;57.948;12.514;2023-07-20T14:52:05;4.10;;;0.68;;
31126;SDS011;17775;57.948;12.514;2023-07-20T14:54:41;5.75;;;1.13;;